createdAt,value
2024-05-09T00:00:42.110Z,4.83
2024-05-09T00:03:10.715Z,4.81
2024-05-09T00:05:41.892Z,4.79
2024-05-09T00:08:10.158Z,4.76
2024-05-09T00:10:39.203Z,4.76
2024-05-09T00:13:08.133Z,4.76
2024-05-09T00:15:36.024Z,4.74
2024-05-09T00:18:05.118Z,4.72
2024-05-09T00:20:37.986Z,4.70
2024-05-09T00:23:08.896Z,4.67
2024-05-09T00:25:36.554Z,4.64
2024-05-09T00:28:03.816Z,4.61
2024-05-09T00:30:35.127Z,4.57
2024-05-09T00:33:08.769Z,4.54
2024-05-09T00:35:37.147Z,4.52
2024-05-09T00:38:04.661Z,4.50
2024-05-09T00:40:44.777Z,4.46
2024-05-09T00:43:13.567Z,4.44
2024-05-09T00:45:42.000Z,4.41
2024-05-09T00:48:11.567Z,4.38
2024-05-09T00:50:41.317Z,4.35
2024-05-09T00:53:11.682Z,4.32
2024-05-09T00:55:39.512Z,4.28
2024-05-09T00:58:07.920Z,4.24
2024-05-09T01:00:39.350Z,4.21
2024-05-09T01:03:10.047Z,4.18
2024-05-09T01:05:39.608Z,4.16
2024-05-09T01:08:07.516Z,4.12
2024-05-09T01:10:36.129Z,4.09
2024-05-09T01:13:07.426Z,4.07
2024-05-09T01:15:35.515Z,4.04
2024-05-09T01:18:07.635Z,4.02
2024-05-09T01:23:06.468Z,3.97
2024-05-09T01:25:33.380Z,3.96
2024-05-09T01:28:00.319Z,3.97
2024-05-09T01:30:33.935Z,3.97
2024-05-09T01:33:04.037Z,3.97
2024-05-09T01:35:31.290Z,3.96
2024-05-09T01:37:58.341Z,3.94
2024-05-09T01:40:33.925Z,3.92
2024-05-09T01:43:05.033Z,3.88
2024-05-09T01:45:31.862Z,3.86
2024-05-09T01:47:59.120Z,3.83
2024-05-09T01:50:37.187Z,3.80
2024-05-09T01:53:11.857Z,3.77
2024-05-09T01:55:39.704Z,3.76
2024-05-09T01:58:07.647Z,3.75
2024-05-09T02:00:39.748Z,3.72
2024-05-09T02:03:11.760Z,3.71
2024-05-09T02:05:41.766Z,3.71
2024-05-09T02:08:13.035Z,3.69
2024-05-09T02:10:39.951Z,3.67
2024-05-09T02:13:09.607Z,3.68
2024-05-09T02:15:36.633Z,3.67
2024-05-09T02:18:03.854Z,3.70
2024-05-09T02:20:36.192Z,3.70
2024-05-09T02:23:06.059Z,3.70
2024-05-09T02:25:33.494Z,3.69
2024-05-09T02:28:00.890Z,3.67
2024-05-09T02:30:38.408Z,3.65
2024-05-09T02:33:13.216Z,3.62
2024-05-09T02:35:42.797Z,3.59
2024-05-09T02:38:10.669Z,3.56
2024-05-09T02:40:39.402Z,3.55
2024-05-09T02:43:08.298Z,3.52
2024-05-09T02:45:36.046Z,3.50
2024-05-09T02:48:03.204Z,3.48
2024-05-09T02:50:37.220Z,3.46
2024-05-09T02:53:09.933Z,3.43
2024-05-09T02:55:40.897Z,3.43
2024-05-09T02:58:08.011Z,3.41
2024-05-09T03:00:39.502Z,3.38
2024-05-09T03:03:11.024Z,3.36
2024-05-09T03:05:40.573Z,3.34
2024-05-09T03:08:08.041Z,3.34
2024-05-09T03:10:37.265Z,3.33
2024-05-09T03:13:14.932Z,3.32
2024-05-09T03:15:43.195Z,3.30
2024-05-09T03:18:10.896Z,3.26
2024-05-09T03:20:39.176Z,3.24
2024-05-09T03:23:08.899Z,3.22
2024-05-09T03:25:37.046Z,3.20
2024-05-09T03:28:04.484Z,3.18
2024-05-09T03:30:39.806Z,3.17
2024-05-09T03:33:14.035Z,3.15
2024-05-09T03:35:42.215Z,3.14
2024-05-09T03:38:09.453Z,3.13
2024-05-09T03:40:44.693Z,3.11
2024-05-09T03:43:11.620Z,3.11
2024-05-09T03:45:38.489Z,3.10
2024-05-09T03:48:05.932Z,3.09
2024-05-09T03:50:35.683Z,3.07
2024-05-09T03:53:04.011Z,3.09
2024-05-09T03:55:31.309Z,3.10
2024-05-09T03:57:58.654Z,3.11
2024-05-09T04:00:34.188Z,3.15
2024-05-09T04:03:07.670Z,3.21
2024-05-09T04:05:38.016Z,3.29
2024-05-09T04:08:05.751Z,3.35
2024-05-09T04:10:34.309Z,3.41
2024-05-09T04:13:03.452Z,3.45
2024-05-09T04:15:31.004Z,3.49
2024-05-09T04:17:58.337Z,3.51
2024-05-09T04:20:35.864Z,3.56
2024-05-09T04:23:07.508Z,3.61
2024-05-09T04:25:35.294Z,3.68
2024-05-09T04:28:02.291Z,3.73
2024-05-09T04:30:36.858Z,3.76
2024-05-09T04:33:08.504Z,3.80
2024-05-09T04:35:37.552Z,3.83
2024-05-09T04:38:05.540Z,3.88
2024-05-09T04:40:35.689Z,3.93
2024-05-09T04:43:07.708Z,3.98
2024-05-09T04:45:35.054Z,4.04
2024-05-09T04:48:02.606Z,4.11
2024-05-09T04:50:36.332Z,4.17
2024-05-09T04:53:10.211Z,4.24
2024-05-09T04:55:38.195Z,4.30
2024-05-09T04:58:08.421Z,4.39
2024-05-09T05:00:37.529Z,4.48
2024-05-09T05:03:08.325Z,4.56
2024-05-09T05:05:43.612Z,4.65
2024-05-09T05:08:16.286Z,4.74
2024-05-09T05:10:44.301Z,4.83
2024-05-09T05:13:21.906Z,4.91
2024-05-09T05:15:50.875Z,5.02
2024-05-09T05:18:18.196Z,5.11
2024-05-09T05:20:45.639Z,5.22
2024-05-09T05:23:14.426Z,5.34
2024-05-09T05:25:44.786Z,5.48
2024-05-09T05:28:11.820Z,5.59
2024-05-09T05:30:39.085Z,5.71
2024-05-09T05:33:07.150Z,5.83
2024-05-09T05:35:34.702Z,5.94
2024-05-09T05:38:02.053Z,6.04
2024-05-09T05:40:36.332Z,6.16
2024-05-09T05:43:05.970Z,6.28
2024-05-09T05:45:32.937Z,6.42
2024-05-09T05:48:00.270Z,6.54
2024-05-09T05:50:35.260Z,6.67
2024-05-09T05:53:05.871Z,6.82
2024-05-09T05:55:33.013Z,6.98
2024-05-09T05:58:00.963Z,7.11
2024-05-09T06:00:34.831Z,7.26
2024-05-09T06:03:05.765Z,7.43
2024-05-09T06:05:33.141Z,7.60
2024-05-09T06:08:00.403Z,7.79
2024-05-09T06:10:37.123Z,7.98
2024-05-09T06:13:07.025Z,8.16
2024-05-09T06:15:34.160Z,8.34
2024-05-09T06:18:01.682Z,8.59
2024-05-09T06:20:35.630Z,8.85
2024-05-09T06:23:06.357Z,9.28
2024-05-09T06:25:33.964Z,9.89
2024-05-09T06:28:01.336Z,10.78
2024-05-09T06:30:36.972Z,11.86
2024-05-09T06:33:07.868Z,13.14
2024-05-09T06:35:35.507Z,14.30
2024-05-09T06:38:02.677Z,15.47
2024-05-09T06:40:36.996Z,16.58
2024-05-09T06:43:14.372Z,17.67
2024-05-09T06:45:41.827Z,18.67
2024-05-09T06:48:09.849Z,19.60
2024-05-09T06:50:38.622Z,20.44
2024-05-09T06:53:07.621Z,21.20
2024-05-09T06:55:34.806Z,21.94
2024-05-09T06:58:01.733Z,22.71
2024-05-09T07:00:35.842Z,23.44
2024-05-09T07:03:10.118Z,24.16
2024-05-09T07:05:37.821Z,24.73
2024-05-09T07:08:05.260Z,25.14
2024-05-09T07:10:34.981Z,25.52
2024-05-09T07:13:03.117Z,25.99
2024-05-09T07:15:29.982Z,26.42
2024-05-09T07:17:57.010Z,26.83
2024-05-09T07:20:32.347Z,27.19
2024-05-09T07:23:02.942Z,27.53
2024-05-09T07:25:30.272Z,27.88
2024-05-09T07:27:58.621Z,28.30
2024-05-09T07:30:32.827Z,28.70
2024-05-09T07:33:02.279Z,29.03
2024-05-09T07:35:30.037Z,29.22
2024-05-09T07:37:57.627Z,29.21
2024-05-09T07:40:32.786Z,29.21
2024-05-09T07:43:07.728Z,29.15
2024-05-09T07:52:32.549Z,30.15
2024-05-09T07:55:55.875Z,30.79
2024-05-09T07:58:27.583Z,31.10
2024-05-09T08:00:54.928Z,31.46
2024-05-09T08:03:22.791Z,31.69
2024-05-09T08:05:51.511Z,31.84
2024-05-09T08:08:18.524Z,31.90
2024-05-09T08:10:45.514Z,32.08
2024-05-09T08:13:12.587Z,32.08
2024-05-09T08:15:39.656Z,31.84
2024-05-09T08:18:11.317Z,31.89
2024-05-09T08:20:38.971Z,32.17
2024-05-09T08:23:06.153Z,32.49
2024-05-09T08:25:34.379Z,32.94
2024-05-09T08:28:01.437Z,33.32
2024-05-09T08:30:33.828Z,33.46
2024-05-09T08:33:05.471Z,33.61
2024-05-09T08:35:33.369Z,33.95
2024-05-09T08:38:02.815Z,34.24
2024-05-09T08:40:35.438Z,34.41
2024-05-09T08:43:07.890Z,34.72
2024-05-09T08:45:36.915Z,34.98
2024-05-09T08:48:07.055Z,35.25
2024-05-09T08:50:38.884Z,35.33
2024-05-09T08:53:08.448Z,35.36
2024-05-09T08:55:42.026Z,35.51
2024-05-09T08:58:16.243Z,35.71
2024-05-09T09:00:44.411Z,35.82
2024-05-09T09:03:17.545Z,35.81
2024-05-09T09:05:56.445Z,36.13
2024-05-09T09:08:23.376Z,36.51
2024-05-09T09:10:53.048Z,36.77
2024-05-09T09:13:20.252Z,36.63
2024-05-09T09:15:48.285Z,36.57
2024-05-09T09:18:16.267Z,36.74
2024-05-09T09:20:44.300Z,36.79
2024-05-09T09:23:11.240Z,36.69
2024-05-09T09:25:41.629Z,36.54
2024-05-09T09:28:09.262Z,36.37
2024-05-09T09:30:43.109Z,36.32
2024-05-09T09:33:10.896Z,36.30
2024-05-09T09:35:40.067Z,36.20
2024-05-09T09:38:07.886Z,35.84
2024-05-09T09:40:39.205Z,35.43
2024-05-09T09:43:15.260Z,35.21
2024-05-09T09:45:43.675Z,35.06
2024-05-09T09:48:12.429Z,34.86
2024-05-09T09:50:40.218Z,34.83
2024-05-09T09:53:08.005Z,34.82
2024-05-09T09:55:35.394Z,34.52
2024-05-09T09:58:04.262Z,34.15
2024-05-09T10:00:33.698Z,33.69
2024-05-09T10:03:01.816Z,33.26
2024-05-09T10:05:29.248Z,32.64
2024-05-09T10:07:56.941Z,31.85
2024-05-09T10:10:31.601Z,30.86
2024-05-09T10:13:00.875Z,30.10
2024-05-09T10:15:27.987Z,29.31
2024-05-09T10:18:04.031Z,28.56
2024-05-09T10:20:43.983Z,27.78
2024-05-09T10:23:27.169Z,26.75
2024-05-09T10:25:57.118Z,25.81
2024-05-09T10:28:39.217Z,24.86
2024-05-09T10:31:11.294Z,23.89
2024-05-09T10:33:49.579Z,23.05
2024-05-09T10:36:22.499Z,22.48
2024-05-09T10:38:50.108Z,22.17
2024-05-09T10:41:19.027Z,22.01
2024-05-09T10:43:47.401Z,21.92
2024-05-09T10:46:19.064Z,21.82
2024-05-09T10:48:47.474Z,21.75
2024-05-09T10:51:14.576Z,21.75
2024-05-09T10:53:44.778Z,21.82
2024-05-09T10:56:13.838Z,21.79
2024-05-09T10:58:40.854Z,21.73
2024-05-09T11:01:09.232Z,21.67
2024-05-09T11:03:37.074Z,21.69
2024-05-09T11:06:04.634Z,21.77
2024-05-09T11:08:32.954Z,21.80
2024-05-09T11:11:00.368Z,21.84
2024-05-09T11:13:32.056Z,21.87
2024-05-09T11:16:00.050Z,21.79
2024-05-09T11:18:31.935Z,21.67
2024-05-09T11:21:02.140Z,21.59
2024-05-09T11:23:32.722Z,21.58
2024-05-09T11:25:59.670Z,21.59
2024-05-09T11:28:29.103Z,21.61
2024-05-09T11:31:06.491Z,21.59
2024-05-09T11:33:36.974Z,21.53
2024-05-09T11:36:04.902Z,21.36
2024-05-09T11:38:32.622Z,21.21
2024-05-09T11:40:59.753Z,21.08
2024-05-09T11:43:26.563Z,20.91
2024-05-09T11:45:53.778Z,20.72
2024-05-09T11:48:20.899Z,20.35
2024-05-09T11:50:47.924Z,19.95
2024-05-09T11:53:14.797Z,19.62
2024-05-09T11:55:41.689Z,19.29
2024-05-09T11:58:09.200Z,19.09
2024-05-09T12:00:37.510Z,18.93
2024-05-09T12:03:05.966Z,18.79
2024-05-09T12:05:34.339Z,18.64
2024-05-09T12:08:02.002Z,18.51
2024-05-09T12:10:33.620Z,18.42
2024-05-09T12:13:04.373Z,18.44
2024-05-09T12:15:32.829Z,18.47
2024-05-09T12:18:02.801Z,18.54
2024-05-09T12:20:36.839Z,18.66
2024-05-09T12:23:06.761Z,18.82
2024-05-09T12:25:33.996Z,18.96
2024-05-09T12:28:01.210Z,18.98
2024-05-09T12:30:35.842Z,19.05
2024-05-09T12:33:07.598Z,19.18
2024-05-09T12:35:34.814Z,19.44
2024-05-09T12:38:01.704Z,19.70
2024-05-09T12:40:35.663Z,20.02
2024-05-09T12:43:09.149Z,20.30
2024-05-09T12:45:37.727Z,20.48
2024-05-09T12:48:07.509Z,20.55
2024-05-09T12:50:35.295Z,20.46
2024-05-09T12:53:03.904Z,20.27
2024-05-09T12:55:37.713Z,20.12
2024-05-09T12:58:11.975Z,19.94
2024-05-09T13:00:39.371Z,19.81
2024-05-09T13:03:07.003Z,19.65
2024-05-09T13:05:34.123Z,19.54
2024-05-09T13:08:01.158Z,19.42
2024-05-09T13:10:32.203Z,19.22
2024-05-09T13:13:01.132Z,19.04
2024-05-09T13:15:29.938Z,18.95
2024-05-09T13:18:02.738Z,18.91
2024-05-09T13:20:33.767Z,18.95
2024-05-09T13:23:07.937Z,19.01
2024-05-09T13:25:36.938Z,19.06
2024-05-09T13:28:05.681Z,19.14
2024-05-09T13:30:39.378Z,19.19
2024-05-09T13:33:11.944Z,19.19
2024-05-09T13:35:44.989Z,19.13
2024-05-09T13:38:15.508Z,19.08
2024-05-09T13:40:42.694Z,19.02
2024-05-09T13:43:09.859Z,19.00
2024-05-09T13:45:36.854Z,19.03
2024-05-09T13:48:04.538Z,19.04
2024-05-09T13:50:35.350Z,19.04
2024-05-09T13:53:08.521Z,18.96
2024-05-09T13:55:39.563Z,18.85
2024-05-09T13:58:07.113Z,18.77
2024-05-09T14:00:44.167Z,18.74
2024-05-09T14:03:16.246Z,18.80
2024-05-09T14:05:44.259Z,18.93
2024-05-09T14:08:11.595Z,19.08
2024-05-09T14:10:44.757Z,19.21
2024-05-09T14:13:12.169Z,19.24
2024-05-09T14:15:39.181Z,19.22
2024-05-09T14:18:08.088Z,19.20
2024-05-09T14:20:36.432Z,19.21
2024-05-09T14:23:03.221Z,19.21
2024-05-09T14:25:35.105Z,19.26
2024-05-09T14:28:04.165Z,19.27
2024-05-09T14:30:36.806Z,19.25
2024-05-09T14:33:06.684Z,19.30
2024-05-09T14:35:34.659Z,19.36
2024-05-09T14:38:01.727Z,19.47
2024-05-09T14:43:01.078Z,19.60
2024-05-09T14:45:29.617Z,19.45
2024-05-09T14:47:56.735Z,19.18
2024-05-09T14:50:32.150Z,18.95
2024-05-09T14:53:03.267Z,18.72
2024-05-09T14:55:30.664Z,18.55
2024-05-09T14:57:57.902Z,18.43
2024-05-09T15:00:29.038Z,18.35
2024-05-09T15:03:00.783Z,18.30
2024-05-09T15:05:27.860Z,18.22
2024-05-09T15:07:56.660Z,18.23
2024-05-09T15:10:33.151Z,18.28
2024-05-09T15:13:02.461Z,18.36
2024-05-09T15:15:29.946Z,18.39
2024-05-09T15:17:57.147Z,18.37
2024-05-09T15:20:31.523Z,18.30
2024-05-09T15:23:02.640Z,18.21
2024-05-09T15:25:31.001Z,18.09
2024-05-09T15:27:58.016Z,18.02
2024-05-09T15:30:30.314Z,17.96
2024-05-09T15:33:01.170Z,17.87
2024-05-09T15:35:28.402Z,17.77
2024-05-09T15:38:03.742Z,17.69
2024-05-09T15:40:38.103Z,17.61
2024-05-09T15:43:09.321Z,17.57
2024-05-09T15:45:37.662Z,17.56
2024-05-09T15:48:05.586Z,17.54
2024-05-09T15:50:38.193Z,17.53
2024-05-09T15:53:09.356Z,17.53
2024-05-09T15:55:37.219Z,17.55
2024-05-09T15:58:05.038Z,17.56
2024-05-09T16:00:38.231Z,17.57
2024-05-09T16:03:13.267Z,17.58
2024-05-09T16:05:42.834Z,17.61
2024-05-09T16:08:10.138Z,17.59
2024-05-09T16:10:42.446Z,17.57
2024-05-09T16:13:11.498Z,17.57
2024-05-09T16:15:38.787Z,17.57
2024-05-09T16:18:06.727Z,17.57
2024-05-09T16:20:39.248Z,17.58
2024-05-09T16:23:09.131Z,17.57
2024-05-09T16:25:36.606Z,17.57
2024-05-09T16:28:07.568Z,17.54
2024-05-09T16:30:37.432Z,17.50
2024-05-09T16:33:05.587Z,17.44
2024-05-09T16:35:33.062Z,17.40
2024-05-09T16:38:02.509Z,17.35
2024-05-09T16:40:36.672Z,17.30
2024-05-09T16:43:07.587Z,17.21
2024-05-09T16:45:35.042Z,17.06
2024-05-09T16:48:02.592Z,16.95
2024-05-09T16:50:33.923Z,16.86
2024-05-09T16:53:03.687Z,16.78
2024-05-09T16:55:31.251Z,16.68
2024-05-09T16:57:58.561Z,16.57
2024-05-09T17:00:35.673Z,16.49
2024-05-09T17:03:09.450Z,16.39
2024-05-09T17:05:37.214Z,16.33
2024-05-09T17:08:04.918Z,16.29
2024-05-09T17:10:34.187Z,16.26
2024-05-09T17:13:03.360Z,16.23
2024-05-09T17:15:32.774Z,16.22
2024-05-09T17:18:00.804Z,16.17
2024-05-09T17:20:33.183Z,16.11
2024-05-09T17:23:03.741Z,16.05
2024-05-09T17:25:31.022Z,15.97
2024-05-09T17:28:05.205Z,15.90
2024-05-09T17:30:36.745Z,15.86
2024-05-09T17:33:06.731Z,15.84
2024-05-09T17:35:34.544Z,15.81
2024-05-09T17:38:01.802Z,15.79
2024-05-09T17:40:33.726Z,15.77
2024-05-09T17:43:04.607Z,15.75
2024-05-09T17:45:32.286Z,15.71
2024-05-09T17:47:59.960Z,15.70
2024-05-09T17:50:34.970Z,15.66
2024-05-09T17:53:05.293Z,15.60
2024-05-09T17:55:32.567Z,15.58
2024-05-09T17:57:59.721Z,15.53
2024-05-09T18:02:56.571Z,15.41
2024-05-09T18:05:23.663Z,15.37
2024-05-09T18:07:50.817Z,15.33
2024-05-09T18:10:25.262Z,15.27
2024-05-09T18:12:56.720Z,15.25
2024-05-09T18:15:23.621Z,15.22
2024-05-09T18:17:51.650Z,15.20
2024-05-09T18:20:28.592Z,15.16
2024-05-09T18:23:05.113Z,15.11
2024-05-09T18:25:35.164Z,15.08
2024-05-09T18:28:05.879Z,15.03
2024-05-09T18:30:35.595Z,14.98
2024-05-09T18:33:05.966Z,14.91
2024-05-09T18:35:34.248Z,14.84
2024-05-09T18:38:01.154Z,14.76
2024-05-09T18:40:33.816Z,14.68
2024-05-09T18:43:05.673Z,14.57
2024-05-09T18:45:34.220Z,14.45
2024-05-09T18:48:01.385Z,14.33
2024-05-09T18:50:34.881Z,14.20
2024-05-09T18:53:13.033Z,14.08
2024-05-09T18:55:41.708Z,13.95
2024-05-09T18:58:08.642Z,13.81
2024-05-09T19:00:38.748Z,13.69
2024-05-09T19:03:10.940Z,13.55
2024-05-09T19:05:40.720Z,13.41
2024-05-09T19:08:08.560Z,13.28
2024-05-09T19:10:37.360Z,13.15
2024-05-09T19:13:09.071Z,13.03
2024-05-09T19:15:39.753Z,12.90
2024-05-09T19:18:07.462Z,12.78
2024-05-09T19:20:36.083Z,12.67
2024-05-09T19:23:05.292Z,12.56
2024-05-09T19:25:33.037Z,12.46
2024-05-09T19:28:01.109Z,12.35
2024-05-09T19:30:37.370Z,12.26
2024-05-09T19:33:08.581Z,12.16
2024-05-09T19:35:35.892Z,12.06
2024-05-09T19:38:02.952Z,11.98
2024-05-09T19:40:32.434Z,11.90
2024-05-09T19:43:02.671Z,11.82
2024-05-09T19:45:30.461Z,11.75
2024-05-09T19:47:57.637Z,11.67
2024-05-09T19:50:32.576Z,11.61
2024-05-09T19:53:07.639Z,11.53
2024-05-09T19:55:35.145Z,11.46
2024-05-09T19:58:05.283Z,11.39
2024-05-09T20:00:39.558Z,11.31
2024-05-09T20:03:09.382Z,11.27
2024-05-09T20:05:37.617Z,11.20
2024-05-09T20:08:05.706Z,11.12
2024-05-09T20:10:35.172Z,11.04
2024-05-09T20:13:04.939Z,10.95
2024-05-09T20:15:34.673Z,10.86
2024-05-09T20:18:02.130Z,10.77
2024-05-09T20:20:37.051Z,10.68
2024-05-09T20:23:08.503Z,10.58
2024-05-09T20:25:35.557Z,10.48
2024-05-09T20:28:02.768Z,10.39
2024-05-09T20:30:32.878Z,10.30
2024-05-09T20:33:05.944Z,10.21
2024-05-09T20:35:34.561Z,10.13
2024-05-09T20:38:02.817Z,10.07
2024-05-09T20:40:34.600Z,10.00
2024-05-09T20:43:05.581Z,9.94
2024-05-09T20:45:33.017Z,9.88
2024-05-09T20:48:00.670Z,9.83
2024-05-09T20:50:36.404Z,9.79
2024-05-09T20:53:12.502Z,9.74
2024-05-09T20:55:40.706Z,9.66
2024-05-09T20:58:08.485Z,9.59
2024-05-09T21:00:40.206Z,9.52
2024-05-09T21:03:11.503Z,9.45
2024-05-09T21:05:39.192Z,9.39
2024-05-09T21:08:07.057Z,9.29
2024-05-09T21:10:35.239Z,9.24
2024-05-09T21:13:03.245Z,9.17
2024-05-09T21:15:31.488Z,9.12
2024-05-09T21:17:58.698Z,9.07
2024-05-09T21:20:31.158Z,8.99
2024-05-09T21:23:00.130Z,8.94
2024-05-09T21:25:27.498Z,8.88
2024-05-09T21:27:54.551Z,8.82
2024-05-09T21:30:32.084Z,8.76
2024-05-09T21:33:14.938Z,8.71
2024-05-09T21:35:43.601Z,8.68
2024-05-09T21:38:11.235Z,8.65
2024-05-09T21:40:38.834Z,8.62
2024-05-09T21:43:09.106Z,8.58
2024-05-09T21:45:37.088Z,8.59
2024-05-09T21:48:04.737Z,8.62
2024-05-09T21:50:38.966Z,8.68
2024-05-09T21:53:08.490Z,8.72
2024-05-09T21:55:35.279Z,8.74
2024-05-09T21:58:03.160Z,8.76
2024-05-09T22:00:36.176Z,8.81
2024-05-09T22:03:09.485Z,8.86
2024-05-09T22:05:38.030Z,8.93
2024-05-09T22:08:05.870Z,8.99
2024-05-09T22:10:35.365Z,9.02
2024-05-09T22:13:07.098Z,9.05
2024-05-09T22:15:36.270Z,9.08
2024-05-09T22:18:04.488Z,9.12
2024-05-09T22:20:37.100Z,9.13
2024-05-09T22:23:06.655Z,9.13
2024-05-09T22:25:33.796Z,9.11
2024-05-09T22:28:01.704Z,9.08
2024-05-09T22:30:35.912Z,9.05
2024-05-09T22:33:07.610Z,9.04
2024-05-09T22:35:35.116Z,9.00
2024-05-09T22:38:05.384Z,8.97
2024-05-09T22:40:42.209Z,8.93
2024-05-09T22:43:17.338Z,8.90
2024-05-09T22:45:44.610Z,8.86
2024-05-09T22:48:11.722Z,8.82
2024-05-09T22:50:38.726Z,8.80
2024-05-09T22:53:05.691Z,8.76
2024-05-09T22:55:32.715Z,8.72
2024-05-09T22:57:59.901Z,8.65
2024-05-09T23:00:31.607Z,8.62
2024-05-09T23:03:03.491Z,8.61
2024-05-09T23:05:32.042Z,8.62
2024-05-09T23:08:00.565Z,8.61
2024-05-09T23:10:32.572Z,8.61
2024-05-09T23:13:03.780Z,8.60
2024-05-09T23:15:30.963Z,8.59
2024-05-09T23:17:58.473Z,8.60
2024-05-09T23:20:35.828Z,8.61
2024-05-09T23:23:10.255Z,8.66
2024-05-09T23:25:38.394Z,8.72
2024-05-09T23:28:05.668Z,8.78
2024-05-09T23:30:37.837Z,8.83
2024-05-09T23:33:08.227Z,8.88
2024-05-09T23:35:35.530Z,8.90
2024-05-09T23:38:05.691Z,8.90
2024-05-09T23:43:03.060Z,8.88
2024-05-09T23:45:29.957Z,8.87
2024-05-09T23:47:56.923Z,8.89
2024-05-09T23:50:32.722Z,8.89
2024-05-09T23:53:02.697Z,8.93
2024-05-09T23:55:31.431Z,8.92
2024-05-09T23:57:58.640Z,8.91
